createdAt,value
2022-11-28T00:00:02.635Z,100967.47
2022-11-28T00:02:29.200Z,100918.72
2022-11-28T00:04:55.685Z,100974.91
2022-11-28T00:07:22.168Z,100987.22
2022-11-28T00:09:48.843Z,100974.22
2022-11-28T00:12:15.238Z,100957.63
2022-11-28T00:14:41.851Z,100975.31
2022-11-28T00:17:08.407Z,100969.88
2022-11-28T00:19:34.842Z,100967.00
2022-11-28T00:22:01.507Z,100978.81
2022-11-28T00:24:27.919Z,100984.22
2022-11-28T00:26:54.372Z,100953.31
2022-11-28T00:29:20.907Z,100948.56
2022-11-28T00:31:47.377Z,100965.75
2022-11-28T00:34:15.206Z,100969.72
2022-11-28T00:36:43.887Z,100937.25
2022-11-28T00:39:10.310Z,100958.97
2022-11-28T00:41:36.771Z,100939.31
2022-11-28T00:44:03.247Z,100938.59
2022-11-28T00:46:30.172Z,100954.63
2022-11-28T00:48:58.026Z,100943.75
2022-11-28T00:51:26.752Z,100959.50
2022-11-28T00:53:54.305Z,100943.22
2022-11-28T00:56:25.490Z,100961.13
2022-11-28T00:58:52.259Z,100912.56
2022-11-28T01:01:24.443Z,100937.88
2022-11-28T01:03:51.737Z,100942.38
2022-11-28T01:06:24.099Z,100933.53
2022-11-28T01:08:50.573Z,100858.81
2022-11-28T01:11:17.117Z,100935.00
2022-11-28T01:13:43.487Z,100914.69
2022-11-28T01:16:10.718Z,100937.75
2022-11-28T01:18:37.624Z,100900.31
2022-11-28T01:21:05.358Z,100880.63
2022-11-28T01:23:31.788Z,100903.78
2022-11-28T01:25:58.191Z,100870.16
2022-11-28T01:28:24.633Z,100882.59
2022-11-28T01:30:51.051Z,100901.88
2022-11-28T01:33:17.443Z,100906.47
2022-11-28T01:35:54.063Z,100920.72
2022-11-28T01:38:20.420Z,100885.53
2022-11-28T01:40:46.968Z,100895.72
2022-11-28T01:43:13.375Z,100882.34
2022-11-28T01:45:40.204Z,100884.75
2022-11-28T01:48:09.054Z,100903.06
2022-11-28T01:50:36.175Z,100916.63
2022-11-28T01:53:05.194Z,100909.16
2022-11-28T01:55:33.978Z,100912.00
2022-11-28T01:58:00.838Z,100915.00
2022-11-28T02:00:27.706Z,100907.19
2022-11-28T02:03:01.574Z,100882.16
2022-11-28T02:05:28.053Z,100895.38
2022-11-28T02:07:54.454Z,100890.22
2022-11-28T02:10:27.196Z,100887.69
2022-11-28T02:13:06.910Z,100896.56
2022-11-28T02:15:44.232Z,100863.69
2022-11-28T02:18:32.183Z,100872.81
2022-11-28T02:21:26.090Z,100898.50
2022-11-28T02:24:13.707Z,100891.69
2022-11-28T02:26:59.955Z,100873.69
2022-11-28T02:29:41.247Z,100860.56
2022-11-28T02:32:22.832Z,100867.97
2022-11-28T02:34:58.196Z,100874.78
2022-11-28T02:37:49.594Z,100885.13
2022-11-28T02:40:21.881Z,100887.28
2022-11-28T02:43:06.426Z,100883.81
2022-11-28T02:46:02.683Z,100874.59
2022-11-28T02:48:57.874Z,100888.84
2022-11-28T02:51:31.880Z,100877.59
2022-11-28T02:54:00.223Z,100862.47
2022-11-28T02:56:26.787Z,100885.53
2022-11-28T02:58:53.323Z,100867.56
2022-11-28T03:01:24.279Z,100866.78
2022-11-28T03:04:03.297Z,100841.03
2022-11-28T03:06:46.796Z,100870.25
2022-11-28T03:09:38.488Z,100879.78
2022-11-28T03:12:37.703Z,100881.41
2022-11-28T03:15:06.596Z,100883.94
2022-11-28T03:17:48.052Z,100871.72
2022-11-28T03:20:35.156Z,100862.00
2022-11-28T03:23:18.867Z,100848.63
2022-11-28T03:26:12.600Z,100866.38
2022-11-28T03:28:44.952Z,100867.97
2022-11-28T03:31:15.268Z,100843.59
2022-11-28T03:33:48.551Z,100863.28
2022-11-28T03:36:20.028Z,100876.63
2022-11-28T03:38:50.711Z,100876.75
2022-11-28T03:41:21.832Z,100876.03
2022-11-28T03:43:53.937Z,100860.53
2022-11-28T03:46:22.444Z,100882.06
2022-11-28T03:48:52.354Z,100844.31
2022-11-28T03:51:22.227Z,100883.09
2022-11-28T03:54:08.515Z,100880.91
2022-11-28T03:56:50.450Z,100852.28
2022-11-28T03:59:21.574Z,100876.53
2022-11-28T04:01:53.921Z,100865.06
2022-11-28T04:04:52.430Z,100882.06
2022-11-28T04:07:43.096Z,100866.63
2022-11-28T04:10:28.155Z,100897.03
2022-11-28T04:13:09.774Z,100893.75
2022-11-28T04:15:58.702Z,100892.53
2022-11-28T04:18:33.696Z,100897.09
2022-11-28T04:21:21.487Z,100883.06
2022-11-28T04:23:49.266Z,100895.50
2022-11-28T04:26:20.478Z,100873.19
2022-11-28T04:28:48.466Z,100863.28
2022-11-28T04:31:16.900Z,100890.78
2022-11-28T04:33:47.984Z,100897.03
2022-11-28T04:36:16.212Z,100855.88
2022-11-28T04:38:43.447Z,100864.78
2022-11-28T04:41:14.143Z,100860.19
2022-11-28T04:43:49.831Z,100887.28
2022-11-28T04:46:19.917Z,100833.38
2022-11-28T04:48:46.340Z,100878.00
2022-11-28T04:52:06.367Z,100891.44
2022-11-28T04:54:38.327Z,100887.38
2022-11-28T04:57:18.250Z,100897.22
2022-11-28T04:59:45.287Z,100866.31
2022-11-28T05:02:13.654Z,100885.72
2022-11-28T05:04:40.477Z,100878.25
2022-11-28T05:07:08.248Z,100905.31
2022-11-28T05:09:34.939Z,100877.91
2022-11-28T05:12:01.523Z,100886.50
2022-11-28T05:14:27.936Z,100884.19
2022-11-28T05:16:54.398Z,100891.03
2022-11-28T05:19:20.861Z,100905.66
2022-11-28T05:21:47.303Z,100880.41
2022-11-28T05:24:13.774Z,100921.78
2022-11-28T05:26:40.206Z,100910.53
2022-11-28T05:29:06.800Z,100928.03
2022-11-28T05:31:33.704Z,100906.63
2022-11-28T05:34:00.219Z,100921.28
2022-11-28T05:36:26.651Z,100926.44
2022-11-28T05:38:53.041Z,100901.16
2022-11-28T05:41:21.765Z,100905.53
2022-11-28T05:43:48.387Z,100915.56
2022-11-28T05:46:14.960Z,100891.16
2022-11-28T05:48:41.393Z,100895.78
2022-11-28T05:51:08.181Z,100919.09
2022-11-28T05:53:34.837Z,100935.09
2022-11-28T05:56:10.447Z,100908.31
2022-11-28T05:58:37.054Z,100946.00
2022-11-28T06:01:11.362Z,100928.22
2022-11-28T06:03:37.851Z,100929.75
2022-11-28T06:06:04.725Z,100935.97
2022-11-28T06:08:31.099Z,100922.34
2022-11-28T06:10:58.246Z,100937.28
2022-11-28T06:13:24.679Z,100904.53
2022-11-28T06:15:51.086Z,100925.91
2022-11-28T06:18:17.464Z,100925.97
2022-11-28T06:20:43.867Z,100939.44
2022-11-28T06:23:10.273Z,100947.56
2022-11-28T06:25:36.647Z,100900.16
2022-11-28T06:28:02.993Z,100914.19
2022-11-28T06:30:29.346Z,100912.72
2022-11-28T06:32:55.734Z,100920.00
2022-11-28T06:35:22.193Z,100941.31
2022-11-28T06:37:48.583Z,100945.63
2022-11-28T06:40:15.076Z,100935.56
2022-11-28T06:42:41.583Z,100929.47
2022-11-28T06:45:09.165Z,100932.53
2022-11-28T06:47:35.566Z,100935.41
2022-11-28T06:50:01.906Z,100935.31
2022-11-28T06:52:28.306Z,100971.13
2022-11-28T06:54:55.052Z,100947.63
2022-11-28T06:57:22.055Z,100963.91
2022-11-28T06:59:49.210Z,100971.34
2022-11-28T07:02:15.626Z,100966.03
2022-11-28T07:04:42.080Z,100952.59
2022-11-28T07:07:10.683Z,100949.47
2022-11-28T07:09:40.335Z,100954.91
2022-11-28T07:12:06.996Z,100964.47
2022-11-28T07:14:33.677Z,100948.28
2022-11-28T07:17:00.268Z,100978.03
2022-11-28T07:19:26.784Z,100956.44
2022-11-28T07:21:53.152Z,100953.19
2022-11-28T07:24:19.572Z,100965.38
2022-11-28T07:26:47.440Z,100952.22
2022-11-28T07:29:15.915Z,100982.44
2022-11-28T07:31:42.669Z,100985.69
2022-11-28T07:34:10.151Z,100998.56
2022-11-28T07:36:37.612Z,100994.72
2022-11-28T07:39:05.710Z,101000.97
2022-11-28T07:41:32.064Z,100992.56
2022-11-28T07:44:00.180Z,101008.72
2022-11-28T07:46:27.825Z,100985.75
2022-11-28T07:48:54.327Z,101015.41
2022-11-28T07:51:23.428Z,100996.84
2022-11-28T07:53:49.883Z,100999.50
2022-11-28T07:56:18.308Z,101012.88
2022-11-28T07:58:45.929Z,101013.72
2022-11-28T08:01:22.250Z,101011.13
2022-11-28T08:03:49.182Z,101007.44
2022-11-28T08:06:17.141Z,101004.03
2022-11-28T08:08:44.028Z,100978.81
2022-11-28T08:11:10.593Z,100980.09
2022-11-28T08:13:38.702Z,101014.38
2022-11-28T08:16:06.923Z,100998.34
2022-11-28T08:18:34.884Z,101003.81
2022-11-28T08:21:12.734Z,100991.09
2022-11-28T08:23:40.000Z,100990.63
2022-11-28T08:26:08.791Z,101007.16
2022-11-28T08:28:35.498Z,101012.97
2022-11-28T08:31:11.921Z,101000.34
2022-11-28T08:33:38.724Z,101027.09
2022-11-28T08:36:09.340Z,101010.41
2022-11-28T08:38:37.128Z,101025.84
2022-11-28T08:41:08.383Z,101028.28
2022-11-28T08:43:36.739Z,101011.06
2022-11-28T08:46:04.379Z,101038.06
2022-11-28T08:48:31.307Z,100999.81
2022-11-28T08:50:57.667Z,101005.97
2022-11-28T08:53:24.172Z,101009.50
2022-11-28T08:55:50.527Z,101001.16
2022-11-28T08:58:16.995Z,101006.25
2022-11-28T09:00:43.556Z,101010.63
2022-11-28T09:03:15.233Z,101009.66
2022-11-28T09:05:42.887Z,101032.66
2022-11-28T09:08:11.785Z,101033.34
2022-11-28T09:10:39.443Z,101028.22
2022-11-28T09:13:06.341Z,101023.22
2022-11-28T09:15:33.402Z,101036.66
2022-11-28T09:17:59.919Z,101030.66
2022-11-28T09:20:26.471Z,101034.88
2022-11-28T09:22:52.961Z,101009.81
2022-11-28T09:25:19.351Z,101005.75
2022-11-28T09:27:45.756Z,100990.75
2022-11-28T09:30:12.651Z,101028.81
2022-11-28T09:32:39.010Z,101029.19
2022-11-28T09:35:05.799Z,101017.00
2022-11-28T09:37:32.304Z,101002.19
2022-11-28T09:40:12.560Z,100991.69
2022-11-28T09:42:43.640Z,101042.03
2022-11-28T09:45:19.042Z,101029.75
2022-11-28T09:47:57.915Z,101047.81
2022-11-28T09:50:32.548Z,101053.28
2022-11-28T09:53:14.154Z,101059.06
2022-11-28T09:55:56.254Z,101050.97
2022-11-28T09:58:43.312Z,101060.38
2022-11-28T10:01:41.507Z,101032.97
2022-11-28T10:04:35.837Z,101053.28
2022-11-28T10:07:18.392Z,101029.25
2022-11-28T10:10:03.934Z,101052.00
2022-11-28T10:12:57.289Z,101033.09
2022-11-28T10:15:50.499Z,101047.97
2022-11-28T10:18:37.293Z,101063.63
2022-11-28T10:21:22.985Z,101039.44
2022-11-28T10:23:50.762Z,101068.72
2022-11-28T10:26:22.648Z,101074.28
2022-11-28T10:28:52.104Z,101047.22
2022-11-28T10:31:36.946Z,101056.47
2022-11-28T10:34:03.207Z,101070.88
2022-11-28T10:37:05.082Z,101069.75
2022-11-28T10:39:31.718Z,101045.00
2022-11-28T10:42:28.424Z,101048.72
2022-11-28T10:44:59.606Z,101046.09
2022-11-28T10:47:55.422Z,101054.34
2022-11-28T10:50:39.270Z,101040.63
2022-11-28T10:53:39.806Z,101061.44
2022-11-28T10:56:27.893Z,101057.53
2022-11-28T10:59:01.118Z,101058.38
2022-11-28T11:01:31.773Z,101034.69
2022-11-28T11:03:58.249Z,101035.16
2022-11-28T11:06:36.105Z,101052.44
2022-11-28T11:09:09.321Z,101019.59
2022-11-28T11:11:40.720Z,101037.16
2022-11-28T11:14:09.835Z,101068.34
2022-11-28T11:16:48.701Z,101064.06
2022-11-28T11:19:27.142Z,101066.69
2022-11-28T11:22:22.441Z,101070.94
2022-11-28T11:25:05.791Z,101075.28
2022-11-28T11:27:32.578Z,101075.78
2022-11-28T11:29:59.122Z,101052.00
2022-11-28T11:32:29.532Z,101042.78
2022-11-28T11:34:57.381Z,101051.06
2022-11-28T11:37:36.364Z,101082.50
2022-11-28T11:40:27.182Z,101040.50
2022-11-28T11:42:59.341Z,101081.44
2022-11-28T11:45:30.359Z,101047.94
2022-11-28T11:47:57.605Z,101051.72
2022-11-28T11:50:26.399Z,101068.16
2022-11-28T11:53:12.764Z,101072.69
2022-11-28T11:55:49.308Z,101071.25
2022-11-28T11:58:28.811Z,101080.22
2022-11-28T12:00:57.695Z,101080.38
2022-11-28T12:03:36.814Z,101067.50
2022-11-28T12:06:29.372Z,101086.97
2022-11-28T12:09:25.003Z,101085.72
2022-11-28T12:12:06.512Z,101072.75
2022-11-28T12:14:34.677Z,101086.13
2022-11-28T12:17:47.907Z,101084.28
2022-11-28T12:20:39.972Z,101068.84
2022-11-28T12:23:40.734Z,101070.69
2022-11-28T12:26:39.502Z,101083.88
2022-11-28T12:29:30.942Z,101070.88
2022-11-28T12:32:30.810Z,101056.91
2022-11-28T12:35:27.735Z,101082.25
2022-11-28T12:38:19.056Z,101092.66
2022-11-28T12:40:45.420Z,101088.00
2022-11-28T12:43:38.528Z,101068.28
2022-11-28T12:46:14.086Z,101080.88
2022-11-28T12:49:03.383Z,101080.22
2022-11-28T12:51:54.025Z,101079.94
2022-11-28T12:54:32.115Z,101070.66
2022-11-28T12:57:29.887Z,101083.16
2022-11-28T13:00:09.463Z,101057.34
2022-11-28T13:02:54.953Z,101091.28
2022-11-28T13:05:40.194Z,101095.19
2022-11-28T13:08:22.609Z,101093.97
2022-11-28T13:11:26.626Z,101107.28
2022-11-28T13:13:59.184Z,101086.41
2022-11-28T13:16:47.563Z,101108.16
2022-11-28T13:19:29.217Z,101108.56
2022-11-28T13:21:58.566Z,101100.41
2022-11-28T13:24:31.632Z,101072.25
2022-11-28T13:27:09.474Z,101091.97
2022-11-28T13:29:42.011Z,101097.19
2022-11-28T13:32:44.829Z,101098.16
2022-11-28T13:35:16.319Z,101075.31
2022-11-28T13:40:42.882Z,101104.78
2022-11-28T13:43:25.539Z,101108.66
2022-11-28T13:45:52.698Z,101085.91
2022-11-28T13:49:05.956Z,101112.06
2022-11-28T13:51:30.639Z,101116.88
2022-11-28T13:54:22.771Z,101116.09
2022-11-28T13:57:05.512Z,101097.72
2022-11-28T13:59:32.610Z,101111.34
2022-11-28T14:02:04.281Z,101109.44
2022-11-28T14:04:32.137Z,101084.53
2022-11-28T14:07:04.322Z,101109.25
2022-11-28T14:09:52.632Z,101135.69
2022-11-28T14:12:31.599Z,101130.84
2022-11-28T14:15:26.209Z,101131.16
2022-11-28T14:18:54.453Z,101136.97
2022-11-28T14:21:12.040Z,101114.53
2022-11-28T14:23:46.121Z,101137.78
2022-11-28T14:26:27.931Z,101134.25
2022-11-28T14:28:54.502Z,101110.97
2022-11-28T14:31:32.888Z,101141.38
2022-11-28T14:34:47.904Z,101130.19
2022-11-28T14:40:59.734Z,101133.59
2022-11-28T14:43:37.805Z,101142.69
2022-11-28T14:46:24.573Z,101156.16
2022-11-28T14:49:00.445Z,101129.69
2022-11-28T14:51:45.683Z,101149.50
2022-11-28T14:54:35.433Z,101139.22
2022-11-28T14:57:02.090Z,101141.56
2022-11-28T14:59:34.446Z,101129.50
2022-11-28T15:02:13.187Z,101143.16
2022-11-28T15:05:03.041Z,101149.78
2022-11-28T15:07:54.692Z,101142.94
2022-11-28T15:10:45.760Z,101148.56
2022-11-28T15:13:24.338Z,101147.63
2022-11-28T15:15:52.245Z,101140.13
2022-11-28T15:18:20.360Z,101157.59
2022-11-28T15:20:50.763Z,101164.91
2022-11-28T15:23:31.282Z,101167.78
2022-11-28T15:25:59.036Z,101138.56
2022-11-28T15:28:28.552Z,101145.69
2022-11-28T15:30:56.978Z,101169.28
2022-11-28T15:33:25.459Z,101169.59
2022-11-28T15:35:58.259Z,101153.66
2022-11-28T15:38:25.805Z,101167.13
2022-11-28T15:40:54.431Z,101128.53
2022-11-28T15:43:21.040Z,101189.59
2022-11-28T15:45:52.365Z,101179.53
2022-11-28T15:48:39.750Z,101169.31
2022-11-28T15:51:07.408Z,101160.66
2022-11-28T15:53:34.186Z,101192.78
2022-11-28T15:56:12.732Z,101197.25
2022-11-28T15:58:42.560Z,101160.50
2022-11-28T16:01:11.551Z,101225.28
2022-11-28T16:03:58.960Z,101197.91
2022-11-28T16:06:28.936Z,101169.31
2022-11-28T16:08:59.771Z,101219.28
2022-11-28T16:11:28.142Z,101216.97
2022-11-28T16:13:56.250Z,101216.97
2022-11-28T16:16:26.040Z,101192.06
2022-11-28T16:18:58.059Z,101225.16
2022-11-28T16:21:42.611Z,101216.84
2022-11-28T16:24:31.205Z,101240.31
2022-11-28T16:27:04.176Z,101221.34
2022-11-28T16:29:34.856Z,101223.28
2022-11-28T16:32:22.923Z,101241.88
2022-11-28T16:34:51.188Z,101227.13
2022-11-28T16:37:26.675Z,101232.44
2022-11-28T16:40:23.049Z,101244.81
2022-11-28T16:42:53.606Z,101238.31
2022-11-28T16:45:29.532Z,101240.31
2022-11-28T16:48:08.964Z,101229.53
2022-11-28T16:50:36.396Z,101224.53
2022-11-28T16:53:04.122Z,101231.97
2022-11-28T16:55:30.395Z,101252.91
2022-11-28T16:58:07.087Z,101236.78
2022-11-28T17:00:34.908Z,101256.63
2022-11-28T17:03:01.661Z,101243.28
2022-11-28T17:05:28.134Z,101260.28
2022-11-28T17:07:54.818Z,101249.09
2022-11-28T17:10:21.342Z,101244.00
2022-11-28T17:12:47.895Z,101263.19
2022-11-28T17:15:18.595Z,101266.19
2022-11-28T17:17:45.019Z,101257.31
2022-11-28T17:20:12.499Z,101273.22
2022-11-28T17:22:44.056Z,101247.84
2022-11-28T17:25:16.100Z,101260.78
2022-11-28T17:27:42.797Z,101281.88
2022-11-28T17:30:19.486Z,101285.00
2022-11-28T17:32:47.913Z,101269.66
2022-11-28T17:35:17.374Z,101249.47
2022-11-28T17:37:43.866Z,101261.84
2022-11-28T17:40:28.923Z,101257.78
2022-11-28T17:42:55.374Z,101274.59
2022-11-28T17:45:22.167Z,101272.84
2022-11-28T17:47:48.659Z,101285.34
2022-11-28T17:50:15.073Z,101286.72
2022-11-28T17:52:41.574Z,101274.91
2022-11-28T17:55:08.346Z,101299.28
2022-11-28T17:57:34.868Z,101273.91
2022-11-28T18:00:01.301Z,101272.00
2022-11-28T18:02:27.797Z,101290.63
2022-11-28T18:04:54.246Z,101293.34
2022-11-28T18:07:20.714Z,101287.50
2022-11-28T18:09:47.819Z,101283.56
2022-11-28T18:12:14.224Z,101294.44
2022-11-28T18:14:40.596Z,101289.56
2022-11-28T18:17:06.991Z,101289.69
2022-11-28T18:19:33.398Z,101302.44
2022-11-28T18:21:59.769Z,101287.91
2022-11-28T18:24:26.175Z,101295.53
2022-11-28T18:26:52.580Z,101278.25
2022-11-28T18:29:18.988Z,101304.00
2022-11-28T18:31:45.559Z,101289.16
2022-11-28T18:34:11.999Z,101313.09
2022-11-28T18:36:39.742Z,101299.50
2022-11-28T18:39:09.302Z,101298.16
2022-11-28T18:41:35.723Z,101307.78
2022-11-28T18:44:04.714Z,101316.09
2022-11-28T18:46:31.798Z,101327.81
2022-11-28T18:48:58.520Z,101322.25
2022-11-28T18:51:34.752Z,101310.50
2022-11-28T18:54:04.522Z,101343.75
2022-11-28T18:56:31.197Z,101336.09
2022-11-28T18:58:58.079Z,101335.28
2022-11-28T19:01:28.488Z,101342.03
2022-11-28T19:03:57.483Z,101341.47
2022-11-28T19:06:24.328Z,101343.56
2022-11-28T19:08:56.436Z,101318.91
2022-11-28T19:11:23.299Z,101338.75
2022-11-28T19:13:51.599Z,101345.69
2022-11-28T19:16:23.758Z,101348.13
2022-11-28T19:18:50.447Z,101357.41
2022-11-28T19:21:19.751Z,101361.47
2022-11-28T19:23:47.146Z,101356.44
2022-11-28T19:26:15.147Z,101337.38
2022-11-28T19:28:41.866Z,101341.34
2022-11-28T19:31:12.547Z,101359.16
2022-11-28T19:33:39.278Z,101355.50
2022-11-28T19:36:07.851Z,101354.28
2022-11-28T19:38:35.295Z,101349.78
2022-11-28T19:41:21.591Z,101348.81
2022-11-28T19:43:48.700Z,101347.72
2022-11-28T19:46:15.526Z,101357.34
2022-11-28T19:48:42.425Z,101359.38
2022-11-28T19:51:10.307Z,101361.16
2022-11-28T19:53:38.098Z,101367.13
2022-11-28T19:56:12.112Z,101363.75
2022-11-28T19:58:38.762Z,101340.91
2022-11-28T20:01:09.508Z,101371.66
2022-11-28T20:03:37.360Z,101375.47
2022-11-28T20:06:11.981Z,101373.88
2022-11-28T20:08:38.838Z,101361.34
2022-11-28T20:11:13.282Z,101352.91
2022-11-28T20:13:41.211Z,101361.78
2022-11-28T20:16:08.849Z,101382.19
2022-11-28T20:18:40.905Z,101384.66
2022-11-28T20:21:09.810Z,101386.31
2022-11-28T20:23:44.345Z,101391.63
2022-11-28T20:26:12.199Z,101390.69
2022-11-28T20:28:39.650Z,101388.59
2022-11-28T20:31:07.169Z,101366.16
2022-11-28T20:33:33.750Z,101394.84
2022-11-28T20:36:08.534Z,101391.31
2022-11-28T20:38:35.333Z,101384.97
2022-11-28T20:41:03.492Z,101412.47
2022-11-28T20:43:31.247Z,101420.66
2022-11-28T20:46:02.578Z,101398.47
2022-11-28T20:48:29.002Z,101416.03
2022-11-28T20:50:55.496Z,101413.03
2022-11-28T20:53:26.552Z,101399.56
2022-11-28T20:56:01.247Z,101411.03
2022-11-28T20:58:27.658Z,101415.09
2022-11-28T21:00:54.401Z,101413.06
2022-11-28T21:03:21.130Z,101417.13
2022-11-28T21:05:47.493Z,101398.47
2022-11-28T21:08:13.855Z,101427.88
2022-11-28T21:10:40.228Z,101394.13
2022-11-28T21:13:07.167Z,101424.59
2022-11-28T21:15:33.528Z,101420.66
2022-11-28T21:18:00.002Z,101415.31
2022-11-28T21:20:26.416Z,101442.00
2022-11-28T21:22:52.820Z,101419.94
2022-11-28T21:25:19.237Z,101426.38
2022-11-28T21:27:46.061Z,101428.50
2022-11-28T21:30:12.467Z,101448.16
2022-11-28T21:32:38.814Z,101417.63
2022-11-28T21:35:05.633Z,101433.56
2022-11-28T21:37:32.304Z,101434.28
2022-11-28T21:39:58.766Z,101425.81
2022-11-28T21:42:25.118Z,101426.91
2022-11-28T21:44:51.490Z,101412.09
2022-11-28T21:47:17.875Z,101420.13
2022-11-28T21:49:44.574Z,101444.38
2022-11-28T21:52:12.110Z,101427.59
2022-11-28T21:54:38.463Z,101445.59
2022-11-28T21:57:04.823Z,101447.34
2022-11-28T21:59:31.696Z,101452.22
2022-11-28T22:01:58.168Z,101454.00
2022-11-28T22:04:24.688Z,101449.50
2022-11-28T22:06:51.222Z,101453.69
2022-11-28T22:09:17.586Z,101451.97
2022-11-28T22:11:43.986Z,101434.00
2022-11-28T22:14:10.952Z,101459.16
2022-11-28T22:16:37.351Z,101465.59
2022-11-28T22:19:04.079Z,101457.00
2022-11-28T22:24:17.539Z,101451.16
2022-11-28T22:26:44.053Z,101448.16
2022-11-28T22:29:11.062Z,101447.47
2022-11-28T22:31:37.644Z,101455.22
2022-11-28T22:34:04.079Z,101455.91
2022-11-28T22:36:32.031Z,101435.91
2022-11-28T22:38:58.907Z,101477.00
2022-11-28T22:41:29.236Z,101480.28
2022-11-28T22:43:59.305Z,101489.94
2022-11-28T22:46:25.940Z,101489.56
2022-11-28T22:48:52.297Z,101486.28
2022-11-28T22:51:22.012Z,101471.16
2022-11-28T22:53:52.694Z,101473.75
2022-11-28T22:56:19.094Z,101475.94
2022-11-28T22:58:45.615Z,101471.44
2022-11-28T23:01:17.760Z,101480.56
2022-11-28T23:03:45.302Z,101492.16
2022-11-28T23:06:14.108Z,101498.81
2022-11-28T23:08:40.598Z,101456.47
2022-11-28T23:11:09.200Z,101473.91
2022-11-28T23:13:36.653Z,101485.34
2022-11-28T23:16:19.675Z,101492.00
2022-11-28T23:18:48.160Z,101500.44
2022-11-28T23:21:15.301Z,101487.25
2022-11-28T23:23:41.922Z,101473.06
2022-11-28T23:26:22.892Z,101472.00
2022-11-28T23:28:49.484Z,101469.00
2022-11-28T23:31:19.012Z,101490.94
2022-11-28T23:33:45.725Z,101497.88
2022-11-28T23:36:17.507Z,101488.47
2022-11-28T23:38:45.085Z,101468.59
2022-11-28T23:41:12.138Z,101475.78
2022-11-28T23:43:38.830Z,101477.88
2022-11-28T23:46:06.171Z,101495.97
2022-11-28T23:48:32.778Z,101483.97
2022-11-28T23:50:59.127Z,101498.84
2022-11-28T23:53:25.783Z,101494.06
2022-11-28T23:55:52.348Z,101501.81
2022-11-28T23:58:19.265Z,101503.03
